createdAt,value
2022-10-12T00:01:00.805Z,9.23
2022-10-12T00:03:27.488Z,8.68
2022-10-12T00:06:21.693Z,8.95
2022-10-12T00:08:50.098Z,9.18
2022-10-12T00:11:22.564Z,9.10
2022-10-12T00:13:49.092Z,8.05
2022-10-12T00:16:18.189Z,7.38
2022-10-12T00:18:45.028Z,7.50
2022-10-12T00:21:15.279Z,5.78
2022-10-12T00:23:43.664Z,5.50
2022-10-12T00:26:19.300Z,5.20
2022-10-12T00:28:46.377Z,6.05
2022-10-12T00:31:15.565Z,5.20
2022-10-12T00:33:42.713Z,5.70
2022-10-12T00:36:31.609Z,5.07
2022-10-12T00:38:59.203Z,5.53
2022-10-12T00:41:28.324Z,5.20
2022-10-12T00:43:58.252Z,4.78
2022-10-12T00:46:44.011Z,5.10
2022-10-12T00:49:24.801Z,4.28
2022-10-12T00:51:55.668Z,4.30
2022-10-12T00:54:28.347Z,4.28
2022-10-12T00:56:56.461Z,4.68
2022-10-12T00:59:30.683Z,4.57
2022-10-12T01:01:57.147Z,4.22
2022-10-12T01:04:24.731Z,4.10
2022-10-12T01:06:52.097Z,4.43
2022-10-12T01:09:19.845Z,4.50
2022-10-12T01:11:46.455Z,4.20
2022-10-12T01:14:13.027Z,4.40
2022-10-12T01:19:56.378Z,4.28
2022-10-12T01:22:23.736Z,4.00
2022-10-12T01:27:42.630Z,4.03
2022-10-12T01:30:24.793Z,4.68
2022-10-12T01:33:19.500Z,4.88
2022-10-12T01:36:00.706Z,4.63
2022-10-12T01:38:43.037Z,4.63
2022-10-12T01:41:18.079Z,5.03
2022-10-12T01:46:16.655Z,4.13
2022-10-12T01:48:45.708Z,3.97
2022-10-12T01:51:17.791Z,4.07
2022-10-12T01:54:05.180Z,4.57
2022-10-12T01:56:53.798Z,5.50
2022-10-12T01:59:36.156Z,4.30
2022-10-12T02:02:34.673Z,4.53
2022-10-12T02:05:35.179Z,4.20
2022-10-12T02:08:10.731Z,4.15
2022-10-12T02:10:43.626Z,5.03
2022-10-12T02:13:13.227Z,4.65
2022-10-12T02:15:42.617Z,4.80
2022-10-12T02:18:13.393Z,4.75
2022-10-12T02:20:42.313Z,4.93
2022-10-12T02:23:11.098Z,4.03
2022-10-12T02:25:39.901Z,4.63
2022-10-12T02:28:12.875Z,4.35
2022-10-12T02:30:51.309Z,4.47
2022-10-12T02:33:29.088Z,5.18
2022-10-12T02:36:04.423Z,4.07
2022-10-12T02:38:55.661Z,3.92
2022-10-12T02:41:29.835Z,3.95
2022-10-12T02:44:03.229Z,4.00
2022-10-12T02:46:31.712Z,3.60
2022-10-12T02:48:59.821Z,3.80
2022-10-12T02:51:29.165Z,3.72
2022-10-12T02:53:56.435Z,4.05
2022-10-12T02:56:23.740Z,4.00
2022-10-12T02:58:50.277Z,4.22
2022-10-12T03:03:44.365Z,4.60
2022-10-12T03:06:11.074Z,4.22
2022-10-12T03:08:37.763Z,4.63
2022-10-12T03:11:11.846Z,4.15
2022-10-12T03:13:38.264Z,4.07
2022-10-12T03:16:06.749Z,4.30
2022-10-12T03:18:34.409Z,3.80
2022-10-12T03:21:00.859Z,4.03
2022-10-12T03:23:27.820Z,4.45
2022-10-12T03:25:54.204Z,4.10
2022-10-12T03:28:20.693Z,4.47
2022-10-12T03:33:13.581Z,4.85
2022-10-12T03:35:40.183Z,4.18
2022-10-12T03:38:06.671Z,4.45
2022-10-12T03:40:33.082Z,4.43
2022-10-12T03:42:59.914Z,4.60
2022-10-12T03:45:26.333Z,4.15
2022-10-12T03:47:53.005Z,4.38
2022-10-12T03:50:19.373Z,4.57
2022-10-12T03:52:45.761Z,4.65
2022-10-12T03:55:13.238Z,4.60
2022-10-12T03:57:39.937Z,5.00
2022-10-12T04:00:07.288Z,4.57
2022-10-12T04:02:38.868Z,5.38
2022-10-12T04:05:05.778Z,5.38
2022-10-12T04:07:32.381Z,5.70
2022-10-12T04:12:29.428Z,6.10
2022-10-12T04:15:00.183Z,5.30
2022-10-12T04:19:53.890Z,5.32
2022-10-12T04:22:20.319Z,5.70
2022-10-12T04:24:46.756Z,7.78
2022-10-12T04:27:13.160Z,6.60
2022-10-12T04:29:39.783Z,6.72
2022-10-12T04:32:11.556Z,8.45
2022-10-12T04:34:38.924Z,9.20
2022-10-12T04:37:05.428Z,10.65
2022-10-12T04:41:58.335Z,11.15
2022-10-12T04:46:57.670Z,13.15
2022-10-12T04:49:24.108Z,12.10
2022-10-12T04:51:50.554Z,11.52
2022-10-12T04:54:16.943Z,14.68
2022-10-12T04:56:47.709Z,13.27
2022-10-12T04:59:14.647Z,12.85
2022-10-12T05:01:41.095Z,12.80
2022-10-12T05:06:34.335Z,12.88
2022-10-12T05:11:27.278Z,13.52
2022-10-12T05:16:21.943Z,14.68
2022-10-12T05:18:48.359Z,14.23
2022-10-12T05:21:14.877Z,13.57
2022-10-12T05:26:07.649Z,13.85
2022-10-12T05:28:39.784Z,13.50
2022-10-12T05:31:07.392Z,14.02
2022-10-12T05:33:33.797Z,14.35
2022-10-12T05:36:00.243Z,14.02
2022-10-12T05:38:26.663Z,13.20
2022-10-12T05:40:57.683Z,12.50
2022-10-12T05:43:26.684Z,12.63
2022-10-12T05:45:53.201Z,12.63
2022-10-12T05:48:20.072Z,11.85
2022-10-12T05:50:46.626Z,11.55
2022-10-12T05:55:40.168Z,11.43
2022-10-12T06:00:32.882Z,11.40
2022-10-12T06:02:59.280Z,10.63
2022-10-12T06:05:25.694Z,12.18
2022-10-12T06:07:52.085Z,11.43
2022-10-12T06:10:18.479Z,11.90
2022-10-12T06:12:44.906Z,14.55
2022-10-12T06:15:11.392Z,13.20
2022-10-12T06:17:37.823Z,11.80
2022-10-12T06:20:04.532Z,11.20
2022-10-12T06:22:31.157Z,11.60
2022-10-12T06:27:25.153Z,10.30
2022-10-12T06:29:51.533Z,11.95
2022-10-12T06:32:17.957Z,11.75
2022-10-12T06:34:45.512Z,11.57
2022-10-12T06:37:25.429Z,12.07
2022-10-12T06:39:58.473Z,10.77
2022-10-12T06:42:25.072Z,10.68
2022-10-12T06:44:53.161Z,10.90
2022-10-12T06:49:45.982Z,11.43
2022-10-12T06:52:12.456Z,11.50
2022-10-12T06:57:06.251Z,10.73
2022-10-12T06:59:33.331Z,10.02
2022-10-12T07:01:59.935Z,9.38
2022-10-12T07:06:53.246Z,10.02
2022-10-12T07:09:19.665Z,9.52
2022-10-12T07:11:46.166Z,9.45
2022-10-12T07:16:39.086Z,8.48
2022-10-12T07:21:31.924Z,8.82
2022-10-12T07:23:58.350Z,8.55
2022-10-12T07:26:25.001Z,8.07
2022-10-12T07:28:51.797Z,8.35
2022-10-12T07:31:18.228Z,8.75
2022-10-12T07:33:44.672Z,7.45
2022-10-12T07:38:45.058Z,9.05
2022-10-12T07:41:11.816Z,7.80
2022-10-12T07:46:05.810Z,7.68
2022-10-12T07:48:32.952Z,8.27
2022-10-12T07:51:07.459Z,8.13
2022-10-12T07:53:34.476Z,7.65
2022-10-12T07:56:14.887Z,7.55
2022-10-12T07:58:51.666Z,7.10
2022-10-12T08:01:20.187Z,7.03
2022-10-12T08:03:47.082Z,6.90
2022-10-12T08:06:16.096Z,6.32
2022-10-12T08:08:43.380Z,6.25
2022-10-12T08:11:10.703Z,6.60
2022-10-12T08:13:37.650Z,6.30
2022-10-12T08:16:06.004Z,6.47
2022-10-12T08:18:32.429Z,6.35
2022-10-12T08:20:58.850Z,5.85
2022-10-12T08:25:53.277Z,5.53
2022-10-12T08:28:20.184Z,5.50
2022-10-12T08:30:47.034Z,5.03
2022-10-12T08:33:15.052Z,5.20
2022-10-12T08:35:42.564Z,5.13
2022-10-12T08:38:11.313Z,4.75
2022-10-12T08:41:06.108Z,4.88
2022-10-12T08:44:00.036Z,4.90
2022-10-12T08:46:28.240Z,5.00
2022-10-12T08:49:14.303Z,5.00
2022-10-12T08:51:47.278Z,4.75
2022-10-12T08:54:15.668Z,5.00
2022-10-12T08:56:42.131Z,4.97
2022-10-12T09:01:59.098Z,4.80
2022-10-12T09:04:41.029Z,5.05
2022-10-12T09:07:22.853Z,4.43
2022-10-12T09:10:18.696Z,4.30
2022-10-12T09:12:49.640Z,4.20
2022-10-12T09:15:33.984Z,4.28
2022-10-12T09:18:02.799Z,4.15
2022-10-12T09:20:35.164Z,4.35
2022-10-12T09:23:24.231Z,4.05
2022-10-12T09:25:54.708Z,4.60
2022-10-12T09:28:37.646Z,5.32
2022-10-12T09:31:10.407Z,4.38
2022-10-12T09:33:54.538Z,5.53
2022-10-12T09:36:23.402Z,5.13
2022-10-12T09:38:50.949Z,5.90
2022-10-12T09:41:24.528Z,5.95
2022-10-12T09:43:56.663Z,6.40
2022-10-12T09:46:37.143Z,6.97
2022-10-12T09:49:03.657Z,6.65
2022-10-12T09:54:03.446Z,6.60
2022-10-12T09:56:39.721Z,6.72
2022-10-12T09:59:23.396Z,6.35
2022-10-12T10:02:04.573Z,6.45
2022-10-12T10:04:31.110Z,5.75
2022-10-12T10:09:38.847Z,6.00
2022-10-12T10:14:43.713Z,5.57
2022-10-12T10:17:15.366Z,5.57
2022-10-12T10:19:49.265Z,5.43
2022-10-12T10:22:16.157Z,5.15
2022-10-12T10:24:42.691Z,5.72
2022-10-12T10:27:29.252Z,5.80
2022-10-12T10:30:28.529Z,5.88
2022-10-12T10:33:18.522Z,6.40
2022-10-12T10:36:24.936Z,5.97
2022-10-12T10:39:02.161Z,6.35
2022-10-12T10:41:47.283Z,6.35
2022-10-12T10:44:24.102Z,5.68
2022-10-12T10:46:51.956Z,6.45
2022-10-12T10:49:42.313Z,6.43
2022-10-12T10:52:29.691Z,6.75
2022-10-12T10:55:44.417Z,6.57
2022-10-12T10:58:24.463Z,6.28
2022-10-12T11:00:53.163Z,6.90
2022-10-12T11:03:25.323Z,6.93
2022-10-12T11:06:16.939Z,6.50
2022-10-12T11:08:45.236Z,6.78
2022-10-12T11:11:16.294Z,7.00
2022-10-12T11:14:04.018Z,6.60
2022-10-12T11:16:37.032Z,7.07
2022-10-12T11:19:22.769Z,7.28
2022-10-12T11:21:55.259Z,7.97
2022-10-12T11:24:40.034Z,6.95
2022-10-12T11:27:21.779Z,7.63
2022-10-12T11:29:58.179Z,7.60
2022-10-12T11:32:48.072Z,7.47
2022-10-12T11:35:23.310Z,7.40
2022-10-12T11:38:01.455Z,7.72
2022-10-12T11:43:37.560Z,7.68
2022-10-12T11:46:08.160Z,7.80
2022-10-12T11:48:44.269Z,7.65
2022-10-12T11:51:12.250Z,8.27
2022-10-12T11:54:01.889Z,8.48
2022-10-12T11:56:40.993Z,8.20
2022-10-12T11:59:24.179Z,8.40
2022-10-12T12:02:12.523Z,8.45
2022-10-12T12:04:44.318Z,8.35
2022-10-12T12:07:16.792Z,8.57
2022-10-12T12:09:49.332Z,8.60
2022-10-12T12:12:28.244Z,8.48
2022-10-12T12:14:54.616Z,8.07
2022-10-12T12:17:30.909Z,8.35
2022-10-12T12:20:01.142Z,9.00
2022-10-12T12:22:49.833Z,8.18
2022-10-12T12:25:32.166Z,8.15
2022-10-12T12:28:06.257Z,9.07
2022-10-12T12:30:39.413Z,8.63
2022-10-12T12:33:21.073Z,8.82
2022-10-12T12:35:55.138Z,8.52
2022-10-12T12:38:28.821Z,8.38
2022-10-12T12:40:58.781Z,8.10
2022-10-12T12:43:31.032Z,7.38
2022-10-12T12:46:09.957Z,7.57
2022-10-12T12:48:39.446Z,7.63
2022-10-12T12:51:37.444Z,7.05
2022-10-12T12:54:11.544Z,7.38
2022-10-12T12:57:12.052Z,7.18
2022-10-12T12:59:56.036Z,7.07
2022-10-12T13:02:43.118Z,6.72
2022-10-12T13:05:33.341Z,6.70
2022-10-12T13:08:26.055Z,6.47
2022-10-12T13:10:55.382Z,6.90
2022-10-12T13:13:57.247Z,6.57
2022-10-12T13:17:09.536Z,7.05
2022-10-12T13:19:13.059Z,8.50
2022-10-12T13:21:46.241Z,6.55
2022-10-12T13:24:12.596Z,6.90
2022-10-12T13:26:40.399Z,7.20
2022-10-12T13:29:16.549Z,6.80
2022-10-12T13:31:47.009Z,6.75
2022-10-12T13:34:27.163Z,7.38
2022-10-12T13:37:10.508Z,5.95
2022-10-12T13:39:43.215Z,6.13
2022-10-12T13:42:14.197Z,6.60
2022-10-12T13:44:41.970Z,6.13
2022-10-12T13:47:24.031Z,6.88
2022-10-12T13:49:51.198Z,6.25
2022-10-12T13:52:27.197Z,7.60
2022-10-12T13:54:56.217Z,6.63
2022-10-12T13:57:50.178Z,6.90
2022-10-12T14:00:16.823Z,6.43
2022-10-12T14:03:00.095Z,6.97
2022-10-12T14:05:29.294Z,7.30
2022-10-12T14:08:03.037Z,6.70
2022-10-12T14:10:35.461Z,6.22
2022-10-12T14:13:04.107Z,6.78
2022-10-12T14:15:33.877Z,7.68
2022-10-12T14:18:00.310Z,6.85
2022-10-12T14:20:34.619Z,6.90
2022-10-12T14:23:04.335Z,6.65
2022-10-12T14:25:32.200Z,7.43
2022-10-12T14:28:02.047Z,7.35
2022-10-12T14:30:31.771Z,6.90
2022-10-12T14:33:16.160Z,7.32
2022-10-12T14:35:47.743Z,6.65
2022-10-12T14:38:39.673Z,7.25
2022-10-12T14:41:31.562Z,6.70
2022-10-12T14:44:11.362Z,6.35
2022-10-12T14:46:51.568Z,6.50
2022-10-12T14:49:25.355Z,6.88
2022-10-12T14:51:54.093Z,6.82
2022-10-12T14:54:22.969Z,6.45
2022-10-12T14:56:49.378Z,7.05
2022-10-12T14:59:15.909Z,6.25
2022-10-12T15:01:47.628Z,6.38
2022-10-12T15:04:17.809Z,7.10
2022-10-12T15:06:49.822Z,6.38
2022-10-12T15:09:17.257Z,6.75
2022-10-12T15:11:43.624Z,6.47
2022-10-12T15:14:11.469Z,6.45
2022-10-12T15:16:38.895Z,5.70
2022-10-12T15:19:05.329Z,7.03
2022-10-12T15:21:31.709Z,6.57
2022-10-12T15:23:58.176Z,6.38
2022-10-12T15:26:24.609Z,7.65
2022-10-12T15:28:51.130Z,6.75
2022-10-12T15:31:18.891Z,6.53
2022-10-12T15:33:46.179Z,5.90
2022-10-12T15:36:12.621Z,6.20
2022-10-12T15:38:39.558Z,6.70
2022-10-12T15:41:06.649Z,6.22
2022-10-12T15:43:35.633Z,6.13
2022-10-12T15:46:04.728Z,6.95
2022-10-12T15:48:31.440Z,6.72
2022-10-12T15:50:57.958Z,5.95
2022-10-12T15:53:51.344Z,6.55
2022-10-12T15:56:40.388Z,6.32
2022-10-12T15:59:07.177Z,6.25
2022-10-12T16:01:35.885Z,6.75
2022-10-12T16:04:04.030Z,6.45
2022-10-12T16:06:30.560Z,5.85
2022-10-12T16:08:56.964Z,6.35
2022-10-12T16:13:56.289Z,6.18
2022-10-12T16:16:23.023Z,6.90
2022-10-12T16:18:49.716Z,5.80
2022-10-12T16:21:16.169Z,6.25
2022-10-12T16:26:13.381Z,6.22
2022-10-12T16:28:39.932Z,5.97
2022-10-12T16:31:15.717Z,5.85
2022-10-12T16:33:42.374Z,7.18
2022-10-12T16:38:39.841Z,5.40
2022-10-12T16:41:11.356Z,6.22
2022-10-12T16:43:38.173Z,11.77
2022-10-12T16:46:04.768Z,10.70
2022-10-12T16:48:31.880Z,8.05
2022-10-12T16:50:58.544Z,6.32
2022-10-12T16:53:25.099Z,6.05
2022-10-12T16:58:17.877Z,6.80
2022-10-12T17:00:44.408Z,7.25
2022-10-12T17:05:42.102Z,6.95
2022-10-12T17:08:15.067Z,6.38
2022-10-12T17:10:44.043Z,6.68
2022-10-12T17:13:13.161Z,6.53
2022-10-12T17:15:41.475Z,6.90
2022-10-12T17:18:08.690Z,7.43
2022-10-12T17:20:36.653Z,6.25
2022-10-12T17:23:03.190Z,6.55
2022-10-12T17:25:29.898Z,6.78
2022-10-12T17:30:22.676Z,7.60
2022-10-12T17:32:49.126Z,6.78
2022-10-12T17:37:41.853Z,7.07
2022-10-12T17:40:10.567Z,6.32
2022-10-12T17:42:37.425Z,6.45
2022-10-12T17:45:04.319Z,6.63
2022-10-12T17:47:30.848Z,6.10
2022-10-12T17:52:23.898Z,7.03
2022-10-12T17:57:17.389Z,7.25
2022-10-12T17:59:44.153Z,6.53
2022-10-12T18:04:37.383Z,6.60
2022-10-12T18:07:03.777Z,6.80
2022-10-12T18:09:31.084Z,6.47
2022-10-12T18:11:57.494Z,6.38
2022-10-12T18:14:23.950Z,7.00
2022-10-12T18:19:16.838Z,7.57
2022-10-12T18:24:16.998Z,7.18
2022-10-12T18:26:46.728Z,7.13
2022-10-12T18:29:17.466Z,9.35
2022-10-12T18:31:44.610Z,7.50
2022-10-12T18:34:11.303Z,7.93
2022-10-12T18:36:39.508Z,7.90
2022-10-12T18:39:06.179Z,7.90
2022-10-12T18:41:32.907Z,7.47
2022-10-12T18:44:02.383Z,7.60
2022-10-12T18:46:32.135Z,8.18
2022-10-12T18:48:59.544Z,8.13
2022-10-12T18:51:32.132Z,8.02
2022-10-12T18:54:00.253Z,8.70
2022-10-12T18:56:27.267Z,9.07
2022-10-12T18:58:54.501Z,8.27
2022-10-12T19:01:24.454Z,8.10
2022-10-12T19:03:52.091Z,7.32
2022-10-12T19:06:25.213Z,7.22
2022-10-12T19:08:52.184Z,7.00
2022-10-12T19:11:21.178Z,7.47
2022-10-12T19:13:58.188Z,8.40
2022-10-12T19:19:06.648Z,62.33
2022-10-12T19:21:34.495Z,30.10
2022-10-12T19:24:06.493Z,13.77
2022-10-12T19:26:33.893Z,11.45
2022-10-12T19:29:00.551Z,8.85
2022-10-12T19:31:33.314Z,8.88
2022-10-12T19:34:02.876Z,9.77
2022-10-12T19:36:30.148Z,9.70
2022-10-12T19:38:59.011Z,9.38
2022-10-12T19:41:26.871Z,9.63
2022-10-12T19:43:53.889Z,8.40
2022-10-12T19:46:20.914Z,9.30
2022-10-12T19:48:52.273Z,9.23
2022-10-12T19:51:20.370Z,8.90
2022-10-12T19:53:47.244Z,9.85
2022-10-12T19:56:16.982Z,9.80
2022-10-12T19:58:45.683Z,8.77
2022-10-12T20:01:18.976Z,8.95
2022-10-12T20:03:48.004Z,8.00
2022-10-12T20:06:14.915Z,7.97
2022-10-12T20:08:43.475Z,6.70
2022-10-12T20:11:16.984Z,7.90
2022-10-12T20:13:46.063Z,6.78
2022-10-12T20:16:13.578Z,8.27
2022-10-12T20:21:45.068Z,9.90
2022-10-12T20:26:38.506Z,8.73
2022-10-12T20:29:05.038Z,8.82
2022-10-12T20:31:31.788Z,8.88
2022-10-12T20:33:58.345Z,8.90
2022-10-12T20:38:57.243Z,8.50
2022-10-12T20:41:25.234Z,7.88
2022-10-12T20:43:57.194Z,8.73
2022-10-12T20:46:24.220Z,9.85
2022-10-12T20:48:54.692Z,10.18
2022-10-12T20:51:28.646Z,9.82
2022-10-12T20:53:58.700Z,9.73
2022-10-12T20:56:25.480Z,10.25
2022-10-12T20:58:53.135Z,9.70
2022-10-12T21:01:19.630Z,9.65
2022-10-12T21:06:15.668Z,11.02
2022-10-12T21:08:42.994Z,10.70
2022-10-12T21:11:10.296Z,10.13
2022-10-12T21:13:41.497Z,9.43
2022-10-12T21:16:09.557Z,9.75
2022-10-12T21:18:38.143Z,9.55
2022-10-12T21:21:13.766Z,9.18
2022-10-12T21:23:41.618Z,8.85
2022-10-12T21:26:10.349Z,9.77
2022-10-12T21:28:36.781Z,8.55
2022-10-12T21:31:03.186Z,8.75
2022-10-12T21:33:29.621Z,9.13
2022-10-12T21:36:05.447Z,8.50
2022-10-12T21:38:31.866Z,8.95
2022-10-12T21:40:58.758Z,9.30
2022-10-12T21:43:25.161Z,9.65
2022-10-12T21:45:51.556Z,9.85
2022-10-12T21:50:44.329Z,9.90
2022-10-12T21:53:10.837Z,9.02
2022-10-12T21:58:03.558Z,10.23
2022-10-12T22:00:30.010Z,9.27
2022-10-12T22:05:24.948Z,9.55
2022-10-12T22:10:17.826Z,9.07
2022-10-12T22:15:11.715Z,8.77
2022-10-12T22:17:38.133Z,8.68
2022-10-12T22:20:04.905Z,9.70
2022-10-12T22:22:31.298Z,9.45
2022-10-12T22:24:57.696Z,9.30
2022-10-12T22:27:31.258Z,9.73
2022-10-12T22:32:27.420Z,9.00
2022-10-12T22:34:54.514Z,9.30
2022-10-12T22:37:22.300Z,9.40
2022-10-12T22:39:48.705Z,9.38
2022-10-12T22:42:15.085Z,8.75
2022-10-12T22:44:42.503Z,10.48
2022-10-12T22:47:08.928Z,9.98
2022-10-12T22:49:35.317Z,8.50
2022-10-12T22:52:01.684Z,9.32
2022-10-12T22:54:30.502Z,9.73
2022-10-12T22:56:56.916Z,8.65
2022-10-12T22:59:25.653Z,9.57
2022-10-12T23:01:52.143Z,9.27
2022-10-12T23:06:45.091Z,8.90
2022-10-12T23:11:38.019Z,10.02
2022-10-12T23:14:04.500Z,9.23
2022-10-12T23:16:32.401Z,9.18
2022-10-12T23:19:01.448Z,9.25
2022-10-12T23:21:29.693Z,8.93
2022-10-12T23:23:57.584Z,8.50
2022-10-12T23:26:25.002Z,9.55
2022-10-12T23:28:51.951Z,10.27
2022-10-12T23:31:21.650Z,9.10
2022-10-12T23:33:57.909Z,9.20
2022-10-12T23:36:24.376Z,8.90
2022-10-12T23:38:50.903Z,9.75
2022-10-12T23:43:43.933Z,8.60
2022-10-12T23:48:37.474Z,9.18
2022-10-12T23:53:35.528Z,8.88
2022-10-12T23:56:01.945Z,9.15
2022-10-12T23:58:28.332Z,8.98
